Aviation Digital Data Service (ADDS)

Output produced by METARs form (2013 UTC 30 August 2014)
found at http://www.aviationweather.gov/adds/metars/
 
KLNS 301953Z 15010KT 10SM FEW034 26/17 A3016 RMK AO2 SLP210 T02610167 $
KLNS 301853Z 16010KT 10SM BKN044 BKN050 24/16 A3018 RMK AO2 SLP219 T02440161 $
KLNS 301753Z 18009KT 10SM SCT032 OVC041 24/16 A3021 RMK AO2 SLP227 T02440161 10244 20161 58012 $
KLNS 301653Z 17007KT 10SM OVC031 23/15 A3022 RMK AO2 SLP233 T02330150 $
KLNS 301553Z 16006KT 10SM OVC032 22/15 A3024 RMK AO2 SLP237 T02220150 $
KLNS 301453Z 15008KT 10SM OVC034 22/15 A3024 RMK AO2 SLP240 T02170150 58002
KLNS 301353Z 12004KT 9SM OVC035 19/17 A3025 RMK AO2 SLP242 T01940167
KLNS 301253Z 09003KT 6SM BR OVC034 18/16 A3025 RMK AO2 SLP242 T01780161
KLNS 301153Z 09004KT 6SM BR OVC037 16/14 A3025 RMK AO2 SLP243 T01610144 10161 20139 51007
KLNS 301053Z 08004KT 7SM BKN047 BKN060 15/14 A3025 RMK AO2 SLP243 T01500139
KLNS 300953Z AUTO 00000KT 8SM FEW048 14/13 A3024 RMK AO2 SLP238 T01390128
KLNS 300853Z AUTO 08003KT 8SM CLR 14/13 A3023 RMK AO2 SLP236 T01390128 58003
KLNS 300753Z AUTO 05004KT 9SM OVC050 16/14 A3024 RMK AO2 SLP237 T01560139
KLNS 300653Z AUTO 09004KT 10SM BKN047 14/13 A3024 RMK AO2 SLP239 T01440128
KLNS 300553Z AUTO 06003KT 10SM CLR 14/12 A3024 RMK AO2 SLP239 T01440122 10206 20139 51004
KLNS 300453Z AUTO 09004KT 10SM CLR 14/12 A3024 RMK AO2 SLP238 T01390122 402500106
KLNS 300353Z AUTO 08004KT 10SM CLR 14/12 A3023 RMK AO2 SLP237 T01440122
KLNS 300253Z AUTO 12004KT 10SM CLR 14/12 A3023 RMK AO2 SLP234 T01440122 51016
KLNS 300153Z 13003KT 10SM CLR 17/12 A3021 RMK AO2 SLP229 T01670122
KLNS 300053Z 17004KT 10SM CLR 18/12 A3020 RMK AO2 SLP224 T01830117
KLNS 292353Z 20003KT 10SM CLR 21/12 A3018 RMK AO2 SLP218 T02060122 10250 20200 51004
KLNS 292253Z 10004KT 10SM CLR 22/11 A3018 RMK AO2 SLP217 T02220111
KLNS 292153Z 10004KT 10SM CLR 24/11 A3017 RMK AO2 SLP216 T02390106
KLNS 292053Z VRB03KT 10SM CLR 24/11 A3017 RMK AO2 SLP214 T02390106 56009
KLNS 291953Z 11005KT 10SM CLR 24/11 A3017 RMK AO2 SLP215 T02390106
KLNS 291853Z 00000KT 10SM CLR 24/10 A3018 RMK AO2 SLP220 T02390100
KLNS 291753Z 00000KT 10SM CLR 23/09 A3019 RMK AO2 SLP223 T02280094 10233 20122 58009
KLNS 291653Z 15006KT 10SM CLR 23/09 A3020 RMK AO2 SLP225 T02280089
KLNS 291553Z VRB03KT 10SM CLR 21/11 A3022 RMK AO2 SLP232 T02110106
KLNS 291453Z 00000KT 10SM CLR 21/11 A3022 RMK AO2 SLP233 T02060106 53005
KLNS 291353Z 00000KT 10SM CLR 18/11 A3022 RMK AO2 SLP231 T01830106
KLNS 291253Z 00000KT 10SM CLR 17/12 A3021 RMK AO2 SLP227 T01670117
KLNS 291153Z 26004KT 10SM CLR 12/10 A3021 RMK AO2 SLP228 T01220100 10144 20106 53022
KLNS 291053Z 00000KT 10SM CLR 11/09 A3019 RMK AO2 SLP220 T01110089
KLNS 290953Z 30005KT 10SM CLR 11/08 A3016 RMK AO2 SLP212 T01060083
KLNS 290853Z 31004KT 10SM CLR 11/09 A3014 RMK AO2 SLP206 T01110089 53004